sensor_id;sensor_type;location;lat;lon;timestamp;pressure;altitude;pressure_sealevel;temperature;humidity
40730;BME280;26418;50.070;8.436;2024-03-02T00:01:06;98821.78;;;4.30;100.00
40730;BME280;26418;50.070;8.436;2024-03-02T00:03:32;98819.53;;;4.37;100.00
40730;BME280;26418;50.070;8.436;2024-03-02T00:06:01;98822.38;;;4.46;100.00
40730;BME280;26418;50.070;8.436;2024-03-02T00:08:30;98824.41;;;4.54;100.00
40730;BME280;26418;50.070;8.436;2024-03-02T00:11:00;98820.09;;;4.59;100.00
40730;BME280;26418;50.070;8.436;2024-03-02T00:13:26;98819.22;;;4.63;100.00
40730;BME280;26418;50.070;8.436;2024-03-02T00:15:53;98817.91;;;4.61;100.00
40730;BME280;26418;50.070;8.436;2024-03-02T00:18:33;98821.91;;;4.63;100.00
40730;BME280;26418;50.070;8.436;2024-03-02T00:21:00;98809.03;;;4.65;100.00
40730;BME280;26418;50.070;8.436;2024-03-02T00:23:35;98802.97;;;4.54;100.00
40730;BME280;26418;50.070;8.436;2024-03-02T00:26:01;98799.75;;;4.57;100.00
40730;BME280;26418;50.070;8.436;2024-03-02T00:28:36;98791.50;;;4.54;100.00
40730;BME280;26418;50.070;8.436;2024-03-02T00:31:12;98813.34;;;4.61;100.00
40730;BME280;26418;50.070;8.436;2024-03-02T00:33:41;98821.94;;;4.58;100.00
40730;BME280;26418;50.070;8.436;2024-03-02T00:36:08;98830.56;;;4.55;100.00
40730;BME280;26418;50.070;8.436;2024-03-02T00:38:48;98823.22;;;4.41;100.00
40730;BME280;26418;50.070;8.436;2024-03-02T00:41:29;98831.56;;;4.40;100.00
40730;BME280;26418;50.070;8.436;2024-03-02T00:43:58;98832.41;;;4.35;100.00
40730;BME280;26418;50.070;8.436;2024-03-02T00:46:25;98818.41;;;4.19;100.00
40730;BME280;26418;50.070;8.436;2024-03-02T00:48:57;98827.47;;;4.23;100.00
40730;BME280;26418;50.070;8.436;2024-03-02T00:51:25;98829.56;;;4.27;100.00
40730;BME280;26418;50.070;8.436;2024-03-02T00:53:53;98829.06;;;4.24;100.00
40730;BME280;26418;50.070;8.436;2024-03-02T00:56:22;98843.75;;;4.27;100.00
40730;BME280;26418;50.070;8.436;2024-03-02T00:58:48;98837.25;;;4.33;100.00
40730;BME280;26418;50.070;8.436;2024-03-02T01:01:14;98831.72;;;4.24;100.00
40730;BME280;26418;50.070;8.436;2024-03-02T01:03:41;98833.03;;;4.27;100.00
40730;BME280;26418;50.070;8.436;2024-03-02T01:06:10;98801.78;;;3.98;100.00
40730;BME280;26418;50.070;8.436;2024-03-02T01:08:35;98824.25;;;4.21;100.00
40730;BME280;26418;50.070;8.436;2024-03-02T01:11:02;98818.56;;;4.28;100.00
40730;BME280;26418;50.070;8.436;2024-03-02T01:13:27;98825.53;;;4.29;100.00
40730;BME280;26418;50.070;8.436;2024-03-02T01:15:53;98819.34;;;4.29;100.00
40730;BME280;26418;50.070;8.436;2024-03-02T01:18:25;98819.88;;;4.31;100.00
40730;BME280;26418;50.070;8.436;2024-03-02T01:20:51;98806.78;;;4.29;100.00
40730;BME280;26418;50.070;8.436;2024-03-02T01:23:20;98818.00;;;4.31;100.00
40730;BME280;26418;50.070;8.436;2024-03-02T01:25:48;98810.63;;;4.23;100.00
40730;BME280;26418;50.070;8.436;2024-03-02T01:28:14;98819.09;;;4.30;100.00
40730;BME280;26418;50.070;8.436;2024-03-02T01:30:40;98814.88;;;4.24;100.00
40730;BME280;26418;50.070;8.436;2024-03-02T01:33:06;98813.84;;;4.20;100.00
40730;BME280;26418;50.070;8.436;2024-03-02T01:35:32;98816.97;;;4.27;100.00
40730;BME280;26418;50.070;8.436;2024-03-02T01:37:58;98809.03;;;4.22;100.00
40730;BME280;26418;50.070;8.436;2024-03-02T01:40:23;98801.25;;;4.20;100.00
40730;BME280;26418;50.070;8.436;2024-03-02T01:42:57;98797.06;;;4.14;100.00
40730;BME280;26418;50.070;8.436;2024-03-02T01:45:24;98800.47;;;4.20;100.00
40730;BME280;26418;50.070;8.436;2024-03-02T01:47:50;98787.38;;;4.18;100.00
40730;BME280;26418;50.070;8.436;2024-03-02T01:50:23;98801.00;;;4.22;100.00
40730;BME280;26418;50.070;8.436;2024-03-02T01:52:49;98780.03;;;4.05;100.00
40730;BME280;26418;50.070;8.436;2024-03-02T01:55:18;98792.44;;;4.20;100.00
40730;BME280;26418;50.070;8.436;2024-03-02T01:57:53;98784.94;;;4.22;100.00
40730;BME280;26418;50.070;8.436;2024-03-02T02:00:22;98783.34;;;4.21;100.00
40730;BME280;26418;50.070;8.436;2024-03-02T02:02:50;98785.03;;;4.12;100.00
40730;BME280;26418;50.070;8.436;2024-03-02T02:05:17;98783.16;;;4.12;100.00
40730;BME280;26418;50.070;8.436;2024-03-02T02:07:43;98780.53;;;4.31;100.00
40730;BME280;26418;50.070;8.436;2024-03-02T02:10:10;98774.72;;;4.24;100.00
40730;BME280;26418;50.070;8.436;2024-03-02T02:12:36;98779.59;;;4.22;100.00
40730;BME280;26418;50.070;8.436;2024-03-02T02:15:03;98782.31;;;4.17;100.00
40730;BME280;26418;50.070;8.436;2024-03-02T02:17:29;98759.22;;;4.02;100.00
40730;BME280;26418;50.070;8.436;2024-03-02T02:19:57;98782.88;;;4.14;100.00
40730;BME280;26418;50.070;8.436;2024-03-02T02:22:23;98778.41;;;4.09;100.00
40730;BME280;26418;50.070;8.436;2024-03-02T02:24:48;98758.84;;;4.08;100.00
40730;BME280;26418;50.070;8.436;2024-03-02T02:27:20;98763.31;;;4.18;100.00
40730;BME280;26418;50.070;8.436;2024-03-02T02:29:45;98752.72;;;4.08;100.00
40730;BME280;26418;50.070;8.436;2024-03-02T02:32:11;98767.31;;;4.16;100.00
40730;BME280;26418;50.070;8.436;2024-03-02T02:34:36;98770.06;;;4.11;100.00
40730;BME280;26418;50.070;8.436;2024-03-02T02:37:02;98770.06;;;4.11;100.00
40730;BME280;26418;50.070;8.436;2024-03-02T02:39:28;98754.84;;;4.11;100.00
40730;BME280;26418;50.070;8.436;2024-03-02T02:41:56;98761.97;;;4.16;100.00
40730;BME280;26418;50.070;8.436;2024-03-02T02:44:21;98773.16;;;4.23;100.00
40730;BME280;26418;50.070;8.436;2024-03-02T02:46:47;98769.63;;;4.28;100.00
40730;BME280;26418;50.070;8.436;2024-03-02T02:49:12;98749.38;;;4.40;100.00
40730;BME280;26418;50.070;8.436;2024-03-02T02:51:38;98763.25;;;4.43;100.00
40730;BME280;26418;50.070;8.436;2024-03-02T02:54:03;98753.91;;;4.40;100.00
40730;BME280;26418;50.070;8.436;2024-03-02T02:56:32;98751.59;;;4.33;100.00
40730;BME280;26418;50.070;8.436;2024-03-02T02:58:57;98732.28;;;4.17;100.00
40730;BME280;26418;50.070;8.436;2024-03-02T03:01:23;98733.44;;;4.11;100.00
40730;BME280;26418;50.070;8.436;2024-03-02T03:03:49;98747.25;;;4.18;100.00
40730;BME280;26418;50.070;8.436;2024-03-02T03:06:17;98723.56;;;4.06;100.00
40730;BME280;26418;50.070;8.436;2024-03-02T03:08:46;98738.69;;;4.16;100.00
40730;BME280;26418;50.070;8.436;2024-03-02T03:11:12;98745.06;;;4.20;100.00
40730;BME280;26418;50.070;8.436;2024-03-02T03:13:37;98743.94;;;4.27;100.00
40730;BME280;26418;50.070;8.436;2024-03-02T03:16:08;98732.16;;;4.28;100.00
40730;BME280;26418;50.070;8.436;2024-03-02T03:18:33;98734.19;;;4.36;100.00
40730;BME280;26418;50.070;8.436;2024-03-02T03:21:02;98729.09;;;4.34;100.00
40730;BME280;26418;50.070;8.436;2024-03-02T03:23:30;98734.09;;;4.22;100.00
40730;BME280;26418;50.070;8.436;2024-03-02T03:25:59;98727.69;;;4.18;100.00
40730;BME280;26418;50.070;8.436;2024-03-02T03:28:25;98736.03;;;4.16;100.00
40730;BME280;26418;50.070;8.436;2024-03-02T03:30:50;98732.84;;;4.14;100.00
40730;BME280;26418;50.070;8.436;2024-03-02T03:33:16;98732.84;;;4.14;100.00
40730;BME280;26418;50.070;8.436;2024-03-02T03:35:41;98745.44;;;4.14;100.00
40730;BME280;26418;50.070;8.436;2024-03-02T03:38:07;98744.56;;;4.18;100.00
40730;BME280;26418;50.070;8.436;2024-03-02T03:40:35;98747.94;;;4.24;100.00
40730;BME280;26418;50.070;8.436;2024-03-02T03:43:01;98740.28;;;4.17;100.00
40730;BME280;26418;50.070;8.436;2024-03-02T03:45:26;98740.00;;;4.19;100.00
40730;BME280;26418;50.070;8.436;2024-03-02T03:47:53;98732.31;;;4.12;100.00
40730;BME280;26418;50.070;8.436;2024-03-02T03:50:21;98724.94;;;4.04;100.00
40730;BME280;26418;50.070;8.436;2024-03-02T03:52:47;98744.13;;;4.11;100.00
40730;BME280;26418;50.070;8.436;2024-03-02T03:55:13;98745.47;;;4.08;100.00
40730;BME280;26418;50.070;8.436;2024-03-02T03:57:45;98735.28;;;4.11;100.00
40730;BME280;26418;50.070;8.436;2024-03-02T04:00:10;98746.44;;;4.18;100.00
40730;BME280;26418;50.070;8.436;2024-03-02T04:02:38;98743.75;;;4.18;100.00
40730;BME280;26418;50.070;8.436;2024-03-02T04:05:03;98745.53;;;4.28;100.00
40730;BME280;26418;50.070;8.436;2024-03-02T04:07:35;98745.16;;;4.34;100.00
40730;BME280;26418;50.070;8.436;2024-03-02T04:10:09;98735.09;;;4.26;100.00
40730;BME280;26418;50.070;8.436;2024-03-02T04:12:36;98746.59;;;4.27;100.00
40730;BME280;26418;50.070;8.436;2024-03-02T04:15:08;98730.50;;;4.07;100.00
40730;BME280;26418;50.070;8.436;2024-03-02T04:17:34;98757.78;;;4.09;100.00
40730;BME280;26418;50.070;8.436;2024-03-02T04:20:01;98748.00;;;4.00;100.00
40730;BME280;26418;50.070;8.436;2024-03-02T04:22:29;98751.97;;;4.02;100.00
40730;BME280;26418;50.070;8.436;2024-03-02T04:24:58;98756.06;;;3.94;100.00
40730;BME280;26418;50.070;8.436;2024-03-02T04:27:26;98750.38;;;4.01;100.00
40730;BME280;26418;50.070;8.436;2024-03-02T04:29:52;98750.59;;;4.05;100.00
40730;BME280;26418;50.070;8.436;2024-03-02T04:32:17;98752.72;;;4.08;100.00
40730;BME280;26418;50.070;8.436;2024-03-02T04:34:44;98747.19;;;3.99;100.00
40730;BME280;26418;50.070;8.436;2024-03-02T04:37:11;98755.72;;;4.01;100.00
40730;BME280;26418;50.070;8.436;2024-03-02T04:39:44;98740.50;;;4.02;100.00
40730;BME280;26418;50.070;8.436;2024-03-02T04:42:09;98753.66;;;3.98;100.00
40730;BME280;26418;50.070;8.436;2024-03-02T04:44:35;98747.13;;;3.80;100.00
40730;BME280;26418;50.070;8.436;2024-03-02T04:47:01;98737.19;;;3.86;100.00
40730;BME280;26418;50.070;8.436;2024-03-02T04:49:35;98743.09;;;3.83;100.00
40730;BME280;26418;50.070;8.436;2024-03-02T04:52:01;98747.09;;;3.85;100.00
40730;BME280;26418;50.070;8.436;2024-03-02T04:54:27;98754.00;;;3.86;100.00
40730;BME280;26418;50.070;8.436;2024-03-02T04:56:52;98748.97;;;3.85;100.00
40730;BME280;26418;50.070;8.436;2024-03-02T04:59:19;98754.09;;;3.81;100.00
40730;BME280;26418;50.070;8.436;2024-03-02T05:01:45;98761.31;;;3.81;100.00
40730;BME280;26418;50.070;8.436;2024-03-02T05:04:11;98759.72;;;3.80;100.00
40730;BME280;26418;50.070;8.436;2024-03-02T05:06:38;98765.91;;;3.75;100.00
40730;BME280;26418;50.070;8.436;2024-03-02T05:09:10;98755.00;;;3.71;100.00
40730;BME280;26418;50.070;8.436;2024-03-02T05:11:36;98769.66;;;3.74;100.00
40730;BME280;26418;50.070;8.436;2024-03-02T05:14:21;98765.72;;;3.66;100.00
40730;BME280;26418;50.070;8.436;2024-03-02T05:16:47;98778.25;;;3.71;100.00
40730;BME280;26418;50.070;8.436;2024-03-02T05:19:12;98770.63;;;3.59;100.00
40730;BME280;26418;50.070;8.436;2024-03-02T05:21:41;98769.59;;;3.55;100.00
40730;BME280;26418;50.070;8.436;2024-03-02T05:24:07;98781.88;;;3.56;100.00
40730;BME280;26418;50.070;8.436;2024-03-02T05:26:32;98765.34;;;3.49;100.00
40730;BME280;26418;50.070;8.436;2024-03-02T05:29:01;98790.38;;;3.63;100.00
40730;BME280;26418;50.070;8.436;2024-03-02T05:31:26;98779.16;;;3.61;100.00
40730;BME280;26418;50.070;8.436;2024-03-02T05:33:52;98795.66;;;3.68;100.00
40730;BME280;26418;50.070;8.436;2024-03-02T05:36:17;98792.47;;;3.66;100.00
40730;BME280;26418;50.070;8.436;2024-03-02T05:38:43;98786.78;;;3.73;100.00
40730;BME280;26418;50.070;8.436;2024-03-02T05:41:09;98799.31;;;3.77;100.00
40730;BME280;26418;50.070;8.436;2024-03-02T05:43:37;98805.72;;;3.82;100.00
40730;BME280;26418;50.070;8.436;2024-03-02T05:46:03;98805.72;;;3.82;100.00
40730;BME280;26418;50.070;8.436;2024-03-02T05:48:29;98804.13;;;3.75;100.00
40730;BME280;26418;50.070;8.436;2024-03-02T05:50:54;98806.25;;;3.78;100.00
40730;BME280;26418;50.070;8.436;2024-03-02T05:53:20;98802.97;;;3.87;100.00
40730;BME280;26418;50.070;8.436;2024-03-02T05:55:45;98808.16;;;4.02;100.00
40730;BME280;26418;50.070;8.436;2024-03-02T05:58:11;98800.31;;;4.11;100.00
40730;BME280;26418;50.070;8.436;2024-03-02T06:00:48;98814.16;;;4.18;100.00
40730;BME280;26418;50.070;8.436;2024-03-02T06:03:13;98810.31;;;4.24;100.00
40730;BME280;26418;50.070;8.436;2024-03-02T06:05:39;98816.19;;;4.27;100.00
40730;BME280;26418;50.070;8.436;2024-03-02T06:08:06;98807.94;;;4.23;100.00
40730;BME280;26418;50.070;8.436;2024-03-02T06:10:35;98794.38;;;4.14;100.00
40730;BME280;26418;50.070;8.436;2024-03-02T06:13:03;98805.03;;;4.19;100.00
40730;BME280;26418;50.070;8.436;2024-03-02T06:15:29;98818.13;;;4.21;100.00
40730;BME280;26418;50.070;8.436;2024-03-02T06:17:54;98816.19;;;4.27;100.00
40730;BME280;26418;50.070;8.436;2024-03-02T06:20:23;98814.25;;;4.32;100.00
40730;BME280;26418;50.070;8.436;2024-03-02T06:22:49;98815.78;;;4.38;100.00
40730;BME280;26418;50.070;8.436;2024-03-02T06:25:14;98806.94;;;4.38;100.00
40730;BME280;26418;50.070;8.436;2024-03-02T06:27:43;98804.22;;;4.43;100.00
40730;BME280;26418;50.070;8.436;2024-03-02T06:30:09;98810.34;;;4.44;100.00
40730;BME280;26418;50.070;8.436;2024-03-02T06:32:38;98804.25;;;4.38;100.00
40730;BME280;26418;50.070;8.436;2024-03-02T06:35:11;98817.53;;;4.48;100.00
40730;BME280;26418;50.070;8.436;2024-03-02T06:37:38;98812.75;;;4.45;100.00
40730;BME280;26418;50.070;8.436;2024-03-02T06:40:06;98830.13;;;4.48;100.00
40730;BME280;26418;50.070;8.436;2024-03-02T06:42:35;98830.06;;;4.53;100.00
40730;BME280;26418;50.070;8.436;2024-03-02T06:45:02;98818.03;;;4.50;100.00
40730;BME280;26418;50.070;8.436;2024-03-02T06:47:28;98814.28;;;4.51;100.00
40730;BME280;26418;50.070;8.436;2024-03-02T06:49:53;98825.97;;;4.61;100.00
40730;BME280;26418;50.070;8.436;2024-03-02T06:52:22;98814.56;;;4.50;100.00
40730;BME280;26418;50.070;8.436;2024-03-02T06:54:47;98814.56;;;4.50;100.00
40730;BME280;26418;50.070;8.436;2024-03-02T06:57:13;98820.72;;;4.50;100.00
40730;BME280;26418;50.070;8.436;2024-03-02T06:59:45;98817.88;;;4.41;100.00
40730;BME280;26418;50.070;8.436;2024-03-02T07:02:10;98822.38;;;4.46;100.00
40730;BME280;26418;50.070;8.436;2024-03-02T07:04:36;98819.16;;;4.68;100.00
40730;BME280;26418;50.070;8.436;2024-03-02T07:07:05;98830.75;;;5.21;100.00
40730;BME280;26418;50.070;8.436;2024-03-02T07:09:34;98831.16;;;5.61;100.00
40730;BME280;26418;50.070;8.436;2024-03-02T07:12:00;98824.75;;;5.76;100.00
40730;BME280;26418;50.070;8.436;2024-03-02T07:14:26;98828.44;;;5.94;100.00
40730;BME280;26418;50.070;8.436;2024-03-02T07:17:11;98824.63;;;6.14;100.00
40730;BME280;26418;50.070;8.436;2024-03-02T07:19:38;98836.66;;;6.17;100.00
40730;BME280;26418;50.070;8.436;2024-03-02T07:22:07;98843.03;;;6.35;100.00
40730;BME280;26418;50.070;8.436;2024-03-02T07:24:40;98839.53;;;6.63;100.00
40730;BME280;26418;50.070;8.436;2024-03-02T07:27:10;98848.84;;;6.79;100.00
40730;BME280;26418;50.070;8.436;2024-03-02T07:29:36;98850.78;;;6.65;100.00
40730;BME280;26418;50.070;8.436;2024-03-02T07:32:05;98857.25;;;6.64;100.00
40730;BME280;26418;50.070;8.436;2024-03-02T07:34:34;98851.75;;;6.69;100.00
40730;BME280;26418;50.070;8.436;2024-03-02T07:37:00;98842.03;;;6.59;100.00
40730;BME280;26418;50.070;8.436;2024-03-02T07:39:26;98855.25;;;6.55;100.00
40730;BME280;26418;50.070;8.436;2024-03-02T07:41:52;98857.75;;;6.52;100.00
40730;BME280;26418;50.070;8.436;2024-03-02T07:44:18;98853.16;;;6.38;100.00
40730;BME280;26418;50.070;8.436;2024-03-02T07:46:45;98854.28;;;6.37;100.00
40730;BME280;26418;50.070;8.436;2024-03-02T07:49:18;98857.16;;;6.41;100.00
40730;BME280;26418;50.070;8.436;2024-03-02T07:51:44;98860.63;;;6.41;100.00
40730;BME280;26418;50.070;8.436;2024-03-02T07:54:09;98848.78;;;6.28;100.00
40730;BME280;26418;50.070;8.436;2024-03-02T07:56:35;98859.44;;;6.34;100.00
40730;BME280;26418;50.070;8.436;2024-03-02T07:59:04;98869.19;;;6.43;100.00
40730;BME280;26418;50.070;8.436;2024-03-02T08:01:31;98859.53;;;6.42;100.00
40730;BME280;26418;50.070;8.436;2024-03-02T08:04:01;98866.13;;;6.50;100.00
40730;BME280;26418;50.070;8.436;2024-03-02T08:06:27;98870.38;;;6.51;100.00
40730;BME280;26418;50.070;8.436;2024-03-02T08:09:01;98875.84;;;6.60;100.00
40730;BME280;26418;50.070;8.436;2024-03-02T08:11:32;98880.72;;;6.58;100.00
40730;BME280;26418;50.070;8.436;2024-03-02T08:14:01;98875.34;;;6.58;100.00
40730;BME280;26418;50.070;8.436;2024-03-02T08:16:27;98882.31;;;6.59;100.00
40730;BME280;26418;50.070;8.436;2024-03-02T08:18:53;98877.44;;;6.61;100.00
40730;BME280;26418;50.070;8.436;2024-03-02T08:21:19;98882.19;;;6.64;100.00
40730;BME280;26418;50.070;8.436;2024-03-02T08:23:45;98882.13;;;6.69;100.00
40730;BME280;26418;50.070;8.436;2024-03-02T08:26:11;98888.06;;;6.80;100.00
40730;BME280;26418;50.070;8.436;2024-03-02T08:28:37;98888.84;;;6.81;100.00
40730;BME280;26418;50.070;8.436;2024-03-02T08:31:04;98889.47;;;6.78;100.00
40730;BME280;26418;50.070;8.436;2024-03-02T08:33:29;98885.38;;;6.80;100.00
40730;BME280;26418;50.070;8.436;2024-03-02T08:35:58;98878.03;;;6.72;100.00
40730;BME280;26418;50.070;8.436;2024-03-02T08:38:24;98877.44;;;6.75;100.00
40730;BME280;26418;50.070;8.436;2024-03-02T08:40:50;98883.59;;;6.89;100.00
40730;BME280;26418;50.070;8.436;2024-03-02T08:43:15;98876.09;;;7.00;100.00
40730;BME280;26418;50.070;8.436;2024-03-02T08:45:42;98871.00;;;7.13;100.00
40730;BME280;26418;50.070;8.436;2024-03-02T08:48:08;98874.06;;;7.20;99.97
40730;BME280;26418;50.070;8.436;2024-03-02T08:50:34;98871.63;;;7.32;99.23
40730;BME280;26418;50.070;8.436;2024-03-02T08:53:00;98880.88;;;7.40;98.39
40730;BME280;26418;50.070;8.436;2024-03-02T08:55:26;98867.50;;;7.35;98.54
40730;BME280;26418;50.070;8.436;2024-03-02T08:57:52;98871.19;;;7.39;98.33
40730;BME280;26418;50.070;8.436;2024-03-02T09:00:20;98874.50;;;7.36;97.52
40730;BME280;26418;50.070;8.436;2024-03-02T09:02:49;98887.66;;;7.37;96.96
40730;BME280;26418;50.070;8.436;2024-03-02T09:05:20;98888.94;;;7.40;96.23
40730;BME280;26418;50.070;8.436;2024-03-02T09:07:46;98883.06;;;7.38;95.96
40730;BME280;26418;50.070;8.436;2024-03-02T09:10:12;98873.22;;;7.33;95.88
40730;BME280;26418;50.070;8.436;2024-03-02T09:12:38;98877.63;;;7.29;96.18
40730;BME280;26418;50.070;8.436;2024-03-02T09:15:05;98878.03;;;7.22;96.40
40730;BME280;26418;50.070;8.436;2024-03-02T09:17:37;98881.50;;;7.23;96.77
40730;BME280;26418;50.070;8.436;2024-03-02T09:20:02;98878.53;;;7.24;96.49
40730;BME280;26418;50.070;8.436;2024-03-02T09:22:32;98885.25;;;7.36;96.88
40730;BME280;26418;50.070;8.436;2024-03-02T09:24:58;98885.94;;;7.42;95.45
40730;BME280;26418;50.070;8.436;2024-03-02T09:27:24;98888.56;;;7.55;95.22
40730;BME280;26418;50.070;8.436;2024-03-02T09:29:49;98868.88;;;7.69;93.88
40730;BME280;26418;50.070;8.436;2024-03-02T09:32:15;98873.09;;;7.84;93.03
40730;BME280;26418;50.070;8.436;2024-03-02T09:34:41;98878.25;;;8.03;92.46
40730;BME280;26418;50.070;8.436;2024-03-02T09:37:07;98873.84;;;8.07;91.39
40730;BME280;26418;50.070;8.436;2024-03-02T09:39:36;98878.47;;;8.15;91.39
40730;BME280;26418;50.070;8.436;2024-03-02T09:42:03;98871.06;;;8.21;90.55
40730;BME280;26418;50.070;8.436;2024-03-02T09:44:33;98860.66;;;8.37;90.60
40730;BME280;26418;50.070;8.436;2024-03-02T09:46:59;98867.13;;;8.59;89.17
40730;BME280;26418;50.070;8.436;2024-03-02T09:49:24;98852.25;;;8.79;87.78
40730;BME280;26418;50.070;8.436;2024-03-02T09:51:50;98863.06;;;8.96;86.02
40730;BME280;26418;50.070;8.436;2024-03-02T09:54:18;98865.28;;;9.12;86.16
40730;BME280;26418;50.070;8.436;2024-03-02T09:56:50;98862.13;;;9.27;84.18
40730;BME280;26418;50.070;8.436;2024-03-02T09:59:16;98854.19;;;9.31;83.52
40730;BME280;26418;50.070;8.436;2024-03-02T10:02:04;98870.03;;;9.33;83.22
40730;BME280;26418;50.070;8.436;2024-03-02T10:04:32;98865.78;;;9.40;85.12
40730;BME280;26418;50.070;8.436;2024-03-02T10:07:19;98864.19;;;9.39;83.58
40730;BME280;26418;50.070;8.436;2024-03-02T10:09:48;98863.69;;;9.37;82.49
40730;BME280;26418;50.070;8.436;2024-03-02T10:12:15;98862.28;;;9.40;80.84
40730;BME280;26418;50.070;8.436;2024-03-02T10:14:41;98854.34;;;9.43;81.27
40730;BME280;26418;50.070;8.436;2024-03-02T10:17:12;98858.47;;;9.50;80.65
40730;BME280;26418;50.070;8.436;2024-03-02T10:19:38;98864.13;;;9.66;81.12
40730;BME280;26418;50.070;8.436;2024-03-02T10:22:06;98858.13;;;9.78;80.86
40730;BME280;26418;50.070;8.436;2024-03-02T10:24:42;98854.41;;;9.82;80.00
40730;BME280;26418;50.070;8.436;2024-03-02T10:27:14;98861.25;;;9.80;79.15
40730;BME280;26418;50.070;8.436;2024-03-02T10:29:41;98851.56;;;9.79;79.02
40730;BME280;26418;50.070;8.436;2024-03-02T10:32:10;98847.47;;;9.81;79.32
40730;BME280;26418;50.070;8.436;2024-03-02T10:34:40;98843.47;;;9.79;78.13
40730;BME280;26418;50.070;8.436;2024-03-02T10:37:07;98850.47;;;9.80;78.50
40730;BME280;26418;50.070;8.436;2024-03-02T10:39:34;98840.31;;;9.77;78.32
40730;BME280;26418;50.070;8.436;2024-03-02T10:42:02;98848.88;;;9.79;78.18
40730;BME280;26418;50.070;8.436;2024-03-02T10:44:29;98847.56;;;9.94;78.44
40730;BME280;26418;50.070;8.436;2024-03-02T10:46:55;98848.81;;;10.05;77.51
40730;BME280;26418;50.070;8.436;2024-03-02T10:49:23;98835.88;;;10.19;78.08
40730;BME280;26418;50.070;8.436;2024-03-02T10:51:49;98833.59;;;10.39;77.62
40730;BME280;26418;50.070;8.436;2024-03-02T10:54:15;98837.00;;;10.57;75.07
40730;BME280;26418;50.070;8.436;2024-03-02T10:56:41;98833.44;;;10.65;74.24
40730;BME280;26418;50.070;8.436;2024-03-02T10:59:34;98832.03;;;10.89;75.24
40730;BME280;26418;50.070;8.436;2024-03-02T11:02:02;98825.56;;;11.03;72.94
40730;BME280;26418;50.070;8.436;2024-03-02T11:04:29;98816.34;;;11.04;72.02
40730;BME280;26418;50.070;8.436;2024-03-02T11:07:10;98811.84;;;11.08;72.15
40730;BME280;26418;50.070;8.436;2024-03-02T11:09:41;98807.53;;;11.07;72.45
40730;BME280;26418;50.070;8.436;2024-03-02T11:12:18;98807.66;;;11.10;71.26
40730;BME280;26418;50.070;8.436;2024-03-02T11:14:44;98809.47;;;11.06;71.19
40730;BME280;26418;50.070;8.436;2024-03-02T11:17:14;98814.28;;;11.00;72.36
40730;BME280;26418;50.070;8.436;2024-03-02T11:19:44;98807.88;;;11.05;71.46
40730;BME280;26418;50.070;8.436;2024-03-02T11:22:11;98804.78;;;11.15;72.10
40730;BME280;26418;50.070;8.436;2024-03-02T11:24:38;98798.09;;;11.13;71.09
40730;BME280;26418;50.070;8.436;2024-03-02T11:27:07;98805.19;;;11.05;70.51
40730;BME280;26418;50.070;8.436;2024-03-02T11:32:16;98802.13;;;11.07;71.05
40730;BME280;26418;50.070;8.436;2024-03-02T11:34:49;98795.94;;;11.06;71.55
40730;BME280;26418;50.070;8.436;2024-03-02T11:37:19;98795.13;;;11.06;70.96
40730;BME280;26418;50.070;8.436;2024-03-02T11:39:51;98787.47;;;11.08;71.16
40730;BME280;26418;50.070;8.436;2024-03-02T11:42:17;98792.25;;;11.11;70.19
40730;BME280;26418;50.070;8.436;2024-03-02T11:44:47;98789.38;;;11.28;69.69
40730;BME280;26418;50.070;8.436;2024-03-02T11:47:15;98783.53;;;11.39;69.20
40730;BME280;26418;50.070;8.436;2024-03-02T11:49:43;98777.47;;;11.42;68.55
40730;BME280;26418;50.070;8.436;2024-03-02T11:52:11;98762.03;;;11.55;68.60
40730;BME280;26418;50.070;8.436;2024-03-02T11:54:39;98771.53;;;11.61;67.40
40730;BME280;26418;50.070;8.436;2024-03-02T11:57:08;98770.41;;;11.62;67.57
40730;BME280;26418;50.070;8.436;2024-03-02T11:59:37;98766.25;;;11.89;67.43
40730;BME280;26418;50.070;8.436;2024-03-02T12:02:03;98761.13;;;12.09;68.11
40730;BME280;26418;50.070;8.436;2024-03-02T12:04:29;98751.69;;;12.43;65.23
40730;BME280;26418;50.070;8.436;2024-03-02T12:07:04;98735.97;;;12.62;64.25
40730;BME280;26418;50.070;8.436;2024-03-02T12:09:32;98746.88;;;12.78;64.06
40730;BME280;26418;50.070;8.436;2024-03-02T12:12:08;98739.28;;;12.83;61.63
40730;BME280;26418;50.070;8.436;2024-03-02T12:14:36;98745.00;;;12.94;62.36
40730;BME280;26418;50.070;8.436;2024-03-02T12:17:02;98743.22;;;12.86;61.94
40730;BME280;26418;50.070;8.436;2024-03-02T12:19:32;98737.47;;;12.87;61.38
40730;BME280;26418;50.070;8.436;2024-03-02T12:21:58;98733.72;;;12.92;61.15
40730;BME280;26418;50.070;8.436;2024-03-02T12:24:28;98732.94;;;12.92;60.98
40730;BME280;26418;50.070;8.436;2024-03-02T12:26:54;98726.94;;;13.14;62.01
40730;BME280;26418;50.070;8.436;2024-03-02T12:29:21;98714.16;;;13.43;61.80
40730;BME280;26418;50.070;8.436;2024-03-02T12:31:50;98717.94;;;13.71;60.62
40730;BME280;26418;50.070;8.436;2024-03-02T12:34:18;98709.16;;;13.77;58.89
40730;BME280;26418;50.070;8.436;2024-03-02T12:36:46;98706.09;;;13.79;57.74
40730;BME280;26418;50.070;8.436;2024-03-02T12:39:14;98707.13;;;13.74;58.08
40730;BME280;26418;50.070;8.436;2024-03-02T12:41:39;98705.31;;;13.62;58.60
40730;BME280;26418;50.070;8.436;2024-03-02T12:44:05;98689.25;;;13.41;58.97
40730;BME280;26418;50.070;8.436;2024-03-02T12:46:34;98708.91;;;13.50;58.99
40730;BME280;26418;50.070;8.436;2024-03-02T12:49:11;98701.19;;;13.52;58.83
40730;BME280;26418;50.070;8.436;2024-03-02T12:51:39;98704.16;;;13.47;58.19
40730;BME280;26418;50.070;8.436;2024-03-02T12:54:09;98702.50;;;13.59;57.88
40730;BME280;26418;50.070;8.436;2024-03-02T12:56:38;98695.50;;;13.74;58.01
40730;BME280;26418;50.070;8.436;2024-03-02T12:59:05;98696.78;;;13.96;58.10
40730;BME280;26418;50.070;8.436;2024-03-02T13:01:31;98691.31;;;14.12;57.56
40730;BME280;26418;50.070;8.436;2024-03-02T13:03:58;98687.34;;;14.25;56.64
40730;BME280;26418;50.070;8.436;2024-03-02T13:06:25;98684.06;;;14.36;56.29
40730;BME280;26418;50.070;8.436;2024-03-02T13:08:54;98682.97;;;14.40;55.52